EPKK Airport Information

Runway Information
Runway 07 Length 8366 ft width 196 ft
Elevation 792 ft Threshold ft Heading 78
Runway 25 Length 8366 ft Width 196 ft
Elevation 779 ft Threshold 784 ft Heading 258
Airport Frequencies
Type APP Name KRAKOW APP Frequency 121.075 MHZ
Type ATIS Name ATIS Frequency 126.125 MHZ
Type DIR Name KRAKOW DIR Frequency 123.8 MHZ
Type TWR Name KRAKOW TWR Frequency 123.25 MHZ
Type TWR Name KRAKOW DEL Frequency 118.1 MHZ
Airport Navaids
Type NDB Name Krakow Frequency 353 KHZ
Airport Weather Information & NOTAM
ADDS - METARS form results

(1738 UTC 29 September 2022)
Data provider http://aviationweather.gov/metar/data/
 
METAR text: EPKK 291730Z 05005KT 020V080 9999 FEW053 10/07 Q1007
Conditions at: EPKK (KRAKOW/BALICE , PL) observed 1730 UTC 29 September 2022
Temperature: 10.0°C (50°F)
Dewpoint: 7.0°C (45°F) [RH = 82%]
Pressure (altimeter): 29.73 inches Hg (1007.0 mb)
Winds: from the NE (50 degrees) at 6 MPH (5 knots; 2.6 m/s)
Visibility: 6 or more miles (10+ km)
Ceiling: at least 12,000 feet AGL
Clouds: few clouds at 5300 feet AGL
Weather: no significant weather observed at this time

METAR text: EPKK 291700Z 09005KT 9999 FEW050 10/07 Q1006
Conditions at: EPKK (KRAKOW/BALICE , PL) observed 1700 UTC 29 September 2022
Temperature: 10.0°C (50°F)
Dewpoint: 7.0°C (45°F) [RH = 82%]
Pressure (altimeter): 29.70 inches Hg (1006.0 mb)
Winds: from the E (90 degrees) at 6 MPH (5 knots; 2.6 m/s)
Visibility: 6 or more miles (10+ km)
Ceiling: at least 12,000 feet AGL
Clouds: few clouds at 5000 feet AGL
Weather: no significant weather observed at this time

Forecast for: EPKK (KRAKOW/BALICE , PL)
Text: TAF EPKK 291730Z 2918/3018 06004KT 9999 BKN030
Forecast period: 1800 UTC 29 September 2022 to 0000 UTC 30 September 2022
Forecast type: FROM: standard forecast or significant change
Winds: from the ENE (60 degrees) at 5 MPH (4 knots; 2.1 m/s)
Visibility: 6 or more miles (10+ km)
Ceiling: 3000 feet AGL
Clouds: broken clouds at 3000 feet AGL
Weather: no significant weather forecast for this period
Text: BECMG 3000/3002 4000 -RA BR BKN013
Forecast period: 0000 to 0200 UTC 30 September 2022
Forecast type: BECOMING: Conditions expected to become as follows by 0200 UTC 30 September 2022
Winds: from the ENE (60 degrees) at 5 MPH (4 knots; 2.1 m/s)
Visibility: 2.49 miles (4.01 km)
Ceiling: 1300 feet AGL
Clouds: broken clouds at 1300 feet AGL
Weather: -RA BR  (light rain, mist)
Text: BECMG 3002/3004 BKN006 BKN012
Forecast period: 0200 to 1800 UTC 30 September 2022
Forecast type: BECOMING: Conditions expected to become as follows by 0400 UTC 30 September 2022
Winds: from the ENE (60 degrees) at 5 MPH (4 knots; 2.1 m/s)
Visibility: 2.49 miles (4.01 km)
Ceiling: 600 feet AGL
Clouds: broken clouds at 600 feet AGL
broken clouds at 1200 feet AGL
Weather: -RA BR  (light rain, mist)